createdAt,value
2023-05-11T00:00:09.215Z,77.31
2023-05-11T00:01:09.212Z,78.35
2023-05-11T00:02:09.316Z,75.88
2023-05-11T00:03:09.321Z,76.28
2023-05-11T00:04:09.276Z,73.42
2023-05-11T00:05:09.221Z,72.08
2023-05-11T00:06:09.263Z,75.02
2023-05-11T00:07:09.283Z,76.11
2023-05-11T00:08:09.249Z,74.18
2023-05-11T00:09:09.296Z,71.76
2023-05-11T00:10:09.278Z,73.03
2023-05-11T00:11:09.295Z,72.92
2023-05-11T00:12:09.322Z,87.01
2023-05-11T00:13:09.356Z,84.66
2023-05-11T00:14:09.356Z,78.49
2023-05-11T00:15:09.424Z,78.82
2023-05-11T00:16:09.450Z,72.98
2023-05-11T00:17:09.424Z,68.88
2023-05-11T00:18:09.468Z,78.65
2023-05-11T00:19:09.469Z,90.31
2023-05-11T00:20:09.502Z,93.59
2023-05-11T00:21:09.560Z,89.71
2023-05-11T00:22:09.570Z,90.96
2023-05-11T00:23:09.598Z,82.05
2023-05-11T00:24:10.084Z,93.92
2023-05-11T00:25:09.596Z,92.97
2023-05-11T00:26:09.620Z,90.96
2023-05-11T00:27:09.669Z,91.54
2023-05-11T00:28:09.686Z,93.87
2023-05-11T00:29:09.736Z,98.14
2023-05-11T00:30:09.723Z,89.44
2023-05-11T00:31:09.738Z,85.22
2023-05-11T00:32:09.763Z,90.25
2023-05-11T00:33:09.769Z,89.74
2023-05-11T00:34:09.770Z,90.37
2023-05-11T00:35:09.818Z,86.11
2023-05-11T00:36:09.821Z,90.48
2023-05-11T00:37:09.864Z,93.24
2023-05-11T00:38:09.861Z,93.79
2023-05-11T00:39:10.089Z,93.13
2023-05-11T00:40:09.905Z,97.11
2023-05-11T00:41:09.973Z,101.59
2023-05-11T00:42:09.992Z,103.98
2023-05-11T00:43:10.003Z,99.94
2023-05-11T00:44:10.079Z,100.57
2023-05-11T00:45:10.082Z,108.37
2023-05-11T00:46:10.059Z,97.20
2023-05-11T00:47:10.176Z,100.69
2023-05-11T00:48:10.130Z,104.68
2023-05-11T00:49:10.151Z,109.81
2023-05-11T00:50:11.060Z,115.16
2023-05-11T00:51:10.197Z,118.19
2023-05-11T00:52:10.214Z,97.48
2023-05-11T00:53:10.244Z,84.27
2023-05-11T00:54:10.243Z,71.65
2023-05-11T00:55:10.282Z,76.51
2023-05-11T00:56:10.284Z,75.13
2023-05-11T00:57:10.368Z,60.21
2023-05-11T00:58:10.337Z,67.28
2023-05-11T00:59:10.601Z,62.27
2023-05-11T01:00:10.434Z,43.58
2023-05-11T01:01:10.474Z,0.00
2023-05-11T01:02:10.470Z,0.00
2023-05-11T01:03:10.475Z,0.00
2023-05-11T01:04:10.509Z,0.00
2023-05-11T01:05:10.523Z,1.31
2023-05-11T01:06:10.559Z,18.12
2023-05-11T01:07:10.637Z,25.13
2023-05-11T01:08:10.701Z,28.95
2023-05-11T01:09:11.111Z,36.30
2023-05-11T01:10:10.751Z,42.58
2023-05-11T01:11:10.819Z,53.10
2023-05-11T01:12:10.883Z,42.07
2023-05-11T01:13:10.962Z,34.59
2023-05-11T01:14:10.978Z,28.27
2023-05-11T01:15:11.040Z,37.95
2023-05-11T01:16:11.123Z,34.36
2023-05-11T01:17:11.164Z,37.63
2023-05-11T01:18:11.318Z,42.87
2023-05-11T01:19:11.316Z,51.68
2023-05-11T01:20:11.290Z,53.92
2023-05-11T01:21:11.383Z,56.31
2023-05-11T01:22:11.437Z,53.34
2023-05-11T01:23:11.460Z,57.58
2023-05-11T01:24:11.501Z,62.96
2023-05-11T01:25:11.593Z,70.14
2023-05-11T01:26:11.650Z,71.05
2023-05-11T01:27:11.661Z,69.50
2023-05-11T01:28:11.740Z,71.40
2023-05-11T01:29:12.090Z,70.09
2023-05-11T01:30:11.867Z,64.94
2023-05-11T01:31:11.928Z,56.20
2023-05-11T01:32:11.998Z,58.84
2023-05-11T01:33:12.084Z,64.73
2023-05-11T01:34:12.123Z,66.36
2023-05-11T01:35:12.199Z,70.68
2023-05-11T01:36:12.206Z,69.81
2023-05-11T01:37:12.320Z,73.22
2023-05-11T01:38:12.393Z,72.35
2023-05-11T01:39:12.445Z,80.94
2023-05-11T01:40:12.485Z,75.42
2023-05-11T01:41:12.551Z,70.85
2023-05-11T01:42:12.593Z,65.51
2023-05-11T01:43:12.690Z,65.83
2023-05-11T01:44:12.739Z,68.26
2023-05-11T01:45:12.764Z,63.30
2023-05-11T01:46:12.901Z,62.19
2023-05-11T01:47:12.900Z,58.36
2023-05-11T01:48:12.981Z,57.25
2023-05-11T01:49:12.984Z,59.63
2023-05-11T01:50:13.045Z,59.07
2023-05-11T01:51:13.063Z,60.43
2023-05-11T01:52:13.097Z,61.13
2023-05-11T01:53:13.106Z,63.22
2023-05-11T01:54:13.217Z,67.42
2023-05-11T01:55:13.196Z,63.35
2023-05-11T01:56:13.226Z,64.98
2023-05-11T01:57:13.233Z,57.55
2023-05-11T01:58:13.252Z,59.46
2023-05-11T01:59:13.301Z,60.07
2023-05-11T02:00:13.302Z,52.10
2023-05-11T02:01:13.344Z,54.77
2023-05-11T02:02:13.372Z,57.06
2023-05-11T02:03:13.461Z,48.46
2023-05-11T02:04:13.487Z,53.12
2023-05-11T02:05:13.525Z,50.12
2023-05-11T02:06:13.533Z,52.25
2023-05-11T02:07:13.545Z,53.98
2023-05-11T02:08:13.583Z,46.72
2023-05-11T02:09:13.639Z,48.84
2023-05-11T02:10:13.588Z,51.81
2023-05-11T02:11:13.620Z,59.37
2023-05-11T02:12:13.653Z,63.71
2023-05-11T02:13:13.654Z,60.64
2023-05-11T02:14:14.106Z,66.53
2023-05-11T02:15:13.627Z,71.30
2023-05-11T02:16:13.659Z,74.49
2023-05-11T02:17:13.620Z,80.17
2023-05-11T02:18:13.637Z,79.29
2023-05-11T02:19:13.627Z,76.38
2023-05-11T02:20:13.637Z,69.87
2023-05-11T02:21:13.611Z,75.91
2023-05-11T02:22:13.669Z,62.44
2023-05-11T02:23:13.725Z,52.96
2023-05-11T02:24:13.744Z,45.21
2023-05-11T02:25:13.788Z,39.94
2023-05-11T02:26:13.818Z,33.42
2023-05-11T02:27:13.855Z,26.93
2023-05-11T02:28:13.931Z,26.74
2023-05-11T02:29:13.985Z,28.67
2023-05-11T02:30:14.137Z,34.93
2023-05-11T02:31:13.971Z,41.70
2023-05-11T02:32:13.938Z,46.29
2023-05-11T02:33:13.940Z,41.09
2023-05-11T02:34:13.933Z,42.29
2023-05-11T02:35:14.106Z,43.35
2023-05-11T02:36:13.961Z,47.36
2023-05-11T02:37:13.954Z,57.33
2023-05-11T02:38:13.934Z,51.17
2023-05-11T02:39:13.957Z,50.40
2023-05-11T02:40:14.143Z,53.96
2023-05-11T02:41:13.980Z,66.01
2023-05-11T02:42:13.975Z,71.31
2023-05-11T02:43:13.985Z,74.31
2023-05-11T02:44:14.024Z,72.88
2023-05-11T02:45:14.116Z,70.46
2023-05-11T02:46:14.052Z,63.60
2023-05-11T02:47:14.004Z,65.18
2023-05-11T02:48:14.032Z,62.21
2023-05-11T02:49:14.071Z,59.51
2023-05-11T02:50:14.076Z,52.34
2023-05-11T02:51:14.119Z,52.33
2023-05-11T02:52:14.121Z,47.08
2023-05-11T02:53:14.135Z,50.76
2023-05-11T02:54:14.128Z,41.22
2023-05-11T02:55:14.176Z,41.16
2023-05-11T02:56:14.186Z,42.00
2023-05-11T02:57:14.198Z,43.88
2023-05-11T02:58:14.291Z,46.22
2023-05-11T02:59:14.219Z,40.26
2023-05-11T03:00:14.246Z,41.55
2023-05-11T03:01:14.378Z,44.83
2023-05-11T03:02:14.355Z,51.65
2023-05-11T03:03:14.383Z,55.14
2023-05-11T03:04:14.356Z,59.73
2023-05-11T03:05:14.351Z,72.03
2023-05-11T03:06:14.389Z,76.50
2023-05-11T03:07:14.393Z,73.20
2023-05-11T03:08:14.384Z,75.38
2023-05-11T03:09:14.406Z,78.99
2023-05-11T03:10:14.443Z,76.83
2023-05-11T03:11:14.445Z,81.26
2023-05-11T03:12:14.474Z,86.92
2023-05-11T03:13:14.462Z,90.59
2023-05-11T03:14:14.490Z,93.02
2023-05-11T03:15:14.514Z,89.24
2023-05-11T03:16:14.583Z,89.02
2023-05-11T03:17:14.589Z,92.74
2023-05-11T03:18:14.579Z,92.20
2023-05-11T03:19:14.588Z,95.47
2023-05-11T03:20:14.624Z,101.46
2023-05-11T03:21:14.617Z,92.55
2023-05-11T03:22:14.680Z,94.15
2023-05-11T03:23:14.649Z,108.80
2023-05-11T03:24:14.673Z,108.31
2023-05-11T03:25:14.682Z,109.90
2023-05-11T03:26:14.695Z,110.31
2023-05-11T03:27:14.738Z,108.23
2023-05-11T03:28:14.784Z,98.67
2023-05-11T03:29:14.788Z,98.56
2023-05-11T03:30:14.781Z,99.02
2023-05-11T03:31:14.796Z,103.32
2023-05-11T03:32:14.843Z,112.05
2023-05-11T03:33:14.858Z,109.80
2023-05-11T03:34:14.849Z,110.59
2023-05-11T03:35:14.907Z,110.88
2023-05-11T03:36:14.896Z,110.69
2023-05-11T03:37:14.908Z,110.53
2023-05-11T03:38:14.943Z,105.69
2023-05-11T03:39:14.963Z,104.97
2023-05-11T03:40:14.994Z,111.12
2023-05-11T03:41:14.999Z,105.70
2023-05-11T03:42:15.016Z,98.09
2023-05-11T03:43:15.274Z,95.17
2023-05-11T03:44:15.043Z,91.23
2023-05-11T03:45:15.070Z,88.79
2023-05-11T03:46:15.128Z,90.59
2023-05-11T03:47:15.118Z,91.63
2023-05-11T03:48:15.151Z,86.48
2023-05-11T03:49:15.136Z,84.53
2023-05-11T03:50:15.187Z,89.25
2023-05-11T03:51:15.177Z,90.08
2023-05-11T03:52:15.195Z,91.07
2023-05-11T03:53:15.211Z,91.62
2023-05-11T03:54:15.244Z,87.43
2023-05-11T03:55:15.240Z,83.82
2023-05-11T03:56:15.228Z,85.29
2023-05-11T03:57:15.237Z,87.17
2023-05-11T03:58:15.326Z,89.95
2023-05-11T03:59:15.301Z,93.43
2023-05-11T04:00:15.463Z,96.54
2023-05-11T04:01:15.360Z,104.45
2023-05-11T04:02:15.412Z,94.58
2023-05-11T04:03:15.482Z,103.31
2023-05-11T04:04:15.403Z,108.79
2023-05-11T04:05:15.661Z,105.11
2023-05-11T04:06:15.398Z,110.21
2023-05-11T04:07:15.457Z,115.12
2023-05-11T04:08:15.472Z,115.46
2023-05-11T04:09:15.458Z,124.24
2023-05-11T04:10:15.548Z,128.96
2023-05-11T04:11:15.517Z,128.40
2023-05-11T04:12:15.516Z,130.19
2023-05-11T04:13:15.522Z,121.82
2023-05-11T04:14:15.560Z,114.60
2023-05-11T04:15:15.772Z,112.53
2023-05-11T04:16:15.674Z,117.68
2023-05-11T04:17:15.591Z,115.15
2023-05-11T04:18:15.600Z,121.21
2023-05-11T04:19:15.627Z,125.97
2023-05-11T04:20:15.839Z,128.97
2023-05-11T04:21:15.668Z,131.11
2023-05-11T04:22:15.731Z,138.62
2023-05-11T04:23:15.783Z,133.48
2023-05-11T04:24:15.794Z,127.24
2023-05-11T04:25:15.818Z,128.94
2023-05-11T04:26:15.829Z,122.22
2023-05-11T04:27:15.817Z,113.74
2023-05-11T04:28:15.875Z,114.88
2023-05-11T04:29:15.866Z,121.26
2023-05-11T04:30:16.114Z,113.81
2023-05-11T04:31:16.023Z,119.40
2023-05-11T04:32:15.981Z,123.01
2023-05-11T04:33:15.978Z,132.45
2023-05-11T04:34:16.010Z,133.55
2023-05-11T04:35:16.159Z,135.58
2023-05-11T04:36:16.093Z,130.50
2023-05-11T04:37:16.129Z,122.45
2023-05-11T04:38:16.143Z,118.15
2023-05-11T04:39:16.189Z,115.11
2023-05-11T04:40:16.920Z,107.91
2023-05-11T04:41:16.182Z,107.71
2023-05-11T04:42:16.255Z,107.25
2023-05-11T04:43:16.287Z,114.41
2023-05-11T04:44:16.308Z,120.84
2023-05-11T04:45:16.665Z,129.72
2023-05-11T04:46:16.458Z,144.66
2023-05-11T04:47:16.470Z,162.80
2023-05-11T04:48:18.095Z,173.73
2023-05-11T04:49:16.480Z,171.85
2023-05-11T04:50:16.581Z,163.25
2023-05-11T04:51:16.461Z,163.16
2023-05-11T04:52:16.462Z,162.16
2023-05-11T04:53:16.457Z,158.17
2023-05-11T04:54:16.484Z,140.32
2023-05-11T04:55:16.430Z,136.30
2023-05-11T04:56:16.421Z,137.38
2023-05-11T04:57:16.439Z,135.63
2023-05-11T04:58:16.427Z,134.16
2023-05-11T04:59:16.408Z,137.67
2023-05-11T05:00:16.887Z,143.09
2023-05-11T05:01:16.498Z,152.79
2023-05-11T05:02:16.407Z,155.39
2023-05-11T05:03:16.427Z,169.62
2023-05-11T05:04:16.510Z,180.03
2023-05-11T05:05:16.381Z,180.33
2023-05-11T05:06:16.396Z,181.06
2023-05-11T05:07:16.379Z,185.08
2023-05-11T05:08:16.326Z,195.18
2023-05-11T05:09:16.355Z,185.69
2023-05-11T05:10:16.461Z,184.61
2023-05-11T05:11:16.352Z,187.57
2023-05-11T05:12:16.375Z,193.70
2023-05-11T05:13:16.310Z,190.95
2023-05-11T05:14:16.331Z,188.65
2023-05-11T05:15:16.347Z,185.50
2023-05-11T05:16:16.329Z,183.93
2023-05-11T05:17:16.290Z,184.85
2023-05-11T05:18:16.287Z,185.77
2023-05-11T05:19:16.300Z,185.40
2023-05-11T05:20:16.765Z,184.05
2023-05-11T05:21:16.266Z,185.31
2023-05-11T05:22:16.263Z,198.42
2023-05-11T05:23:16.236Z,205.90
2023-05-11T05:24:16.240Z,205.69
2023-05-11T05:25:16.252Z,198.35
2023-05-11T05:26:16.293Z,201.09
2023-05-11T05:27:16.380Z,192.25
2023-05-11T05:28:16.405Z,185.28
2023-05-11T05:29:16.489Z,182.33
2023-05-11T05:30:16.813Z,184.81
2023-05-11T05:31:16.752Z,201.18
2023-05-11T05:32:16.685Z,218.26
2023-05-11T05:33:16.708Z,223.96
2023-05-11T05:34:16.837Z,214.49
2023-05-11T05:35:17.711Z,209.07
2023-05-11T05:36:16.812Z,202.60
2023-05-11T05:37:16.852Z,189.52
2023-05-11T05:38:16.916Z,186.63
2023-05-11T05:39:16.927Z,190.77
2023-05-11T05:40:17.271Z,195.99
2023-05-11T05:41:17.070Z,200.76
2023-05-11T05:42:17.075Z,192.33
2023-05-11T05:43:17.129Z,183.56
2023-05-11T05:44:17.171Z,184.55
2023-05-11T05:45:17.247Z,195.12
2023-05-11T05:46:17.322Z,206.46
2023-05-11T05:47:17.341Z,215.87
2023-05-11T05:48:17.411Z,221.07
2023-05-11T05:49:17.446Z,214.71
2023-05-11T05:50:17.822Z,197.01
2023-05-11T05:51:17.556Z,190.75
2023-05-11T05:52:17.594Z,180.46
2023-05-11T05:53:17.663Z,176.80
2023-05-11T05:54:17.698Z,183.40
2023-05-11T05:55:18.195Z,177.28
2023-05-11T05:56:17.768Z,188.21
2023-05-11T05:57:17.780Z,193.26
2023-05-11T05:58:17.820Z,192.29
2023-05-11T05:59:17.847Z,194.93
2023-05-11T06:00:18.453Z,199.74
2023-05-11T06:01:17.889Z,197.16
2023-05-11T06:02:17.929Z,190.32
2023-05-11T06:03:18.097Z,190.88
2023-05-11T06:04:18.105Z,206.10
2023-05-11T06:05:18.175Z,207.41
2023-05-11T06:06:18.112Z,210.83
2023-05-11T06:07:18.153Z,203.08
2023-05-11T06:08:19.138Z,203.13
2023-05-11T06:09:18.175Z,198.80
2023-05-11T06:10:18.332Z,192.66
2023-05-11T06:11:18.141Z,189.09
2023-05-11T06:12:18.101Z,173.01
2023-05-11T06:13:18.146Z,177.06
2023-05-11T06:14:18.108Z,183.98
2023-05-11T06:15:18.199Z,194.12
2023-05-11T06:16:18.168Z,194.70
2023-05-11T06:17:18.178Z,195.01
2023-05-11T06:18:18.256Z,203.10
2023-05-11T06:19:18.329Z,214.60
2023-05-11T06:20:18.645Z,214.28
2023-05-11T06:21:18.455Z,206.68
2023-05-11T06:22:18.526Z,209.97
2023-05-11T06:23:18.546Z,204.43
2023-05-11T06:24:18.607Z,197.35
2023-05-11T06:25:18.697Z,168.46
2023-05-11T06:26:18.753Z,142.47
2023-05-11T06:27:18.840Z,132.67
2023-05-11T06:28:18.849Z,129.70
2023-05-11T06:29:18.932Z,126.36
2023-05-11T06:30:19.457Z,114.10
2023-05-11T06:31:19.101Z,120.30
2023-05-11T06:32:19.048Z,129.11
2023-05-11T06:33:19.069Z,127.52
2023-05-11T06:34:19.048Z,135.46
2023-05-11T06:35:19.189Z,143.89
2023-05-11T06:36:19.030Z,154.93
2023-05-11T06:37:19.063Z,162.43
2023-05-11T06:38:19.079Z,165.32
2023-05-11T06:39:19.065Z,147.29
2023-05-11T06:40:19.269Z,151.92
2023-05-11T06:41:19.072Z,163.74
2023-05-11T06:42:19.086Z,183.39
2023-05-11T06:43:19.078Z,196.96
2023-05-11T06:44:19.085Z,195.29
2023-05-11T06:45:19.104Z,195.72
2023-05-11T06:46:19.237Z,189.89
2023-05-11T06:47:19.113Z,179.16
2023-05-11T06:48:19.107Z,177.04
2023-05-11T06:49:19.117Z,183.68
2023-05-11T06:50:21.193Z,187.50
2023-05-11T06:51:19.103Z,192.15
2023-05-11T06:52:19.155Z,183.30
2023-05-11T06:53:19.146Z,179.50
2023-05-11T06:54:19.177Z,193.85
2023-05-11T06:55:19.227Z,199.63
2023-05-11T06:56:19.204Z,205.30
2023-05-11T06:57:19.282Z,199.25
2023-05-11T06:58:19.323Z,188.65
2023-05-11T06:59:19.337Z,193.76
2023-05-11T07:00:19.561Z,199.89
2023-05-11T07:01:19.498Z,198.75
2023-05-11T07:02:19.462Z,199.11
2023-05-11T07:03:19.595Z,210.07
2023-05-11T07:04:19.678Z,207.80
2023-05-11T07:05:19.666Z,201.74
2023-05-11T07:06:20.201Z,217.01
2023-05-11T07:07:19.761Z,211.15
2023-05-11T07:08:19.809Z,201.65
2023-05-11T07:09:19.814Z,205.29
2023-05-11T07:10:20.026Z,200.18
2023-05-11T07:11:20.241Z,178.61
2023-05-11T07:12:19.850Z,180.28
2023-05-11T07:13:19.911Z,195.93
2023-05-11T07:14:19.863Z,199.78
2023-05-11T07:15:19.868Z,195.81
2023-05-11T07:16:20.252Z,200.81
2023-05-11T07:17:19.964Z,200.10
2023-05-11T07:18:19.970Z,195.06
2023-05-11T07:19:19.925Z,196.95
2023-05-11T07:20:20.081Z,170.09
2023-05-11T07:21:20.209Z,167.78
2023-05-11T07:22:19.955Z,182.13
2023-05-11T07:23:19.951Z,189.66
2023-05-11T07:24:20.026Z,197.70
2023-05-11T07:25:20.049Z,209.94
2023-05-11T07:26:20.233Z,217.61
2023-05-11T07:27:20.058Z,222.83
2023-05-11T07:28:20.093Z,212.95
2023-05-11T07:29:20.100Z,198.61
2023-05-11T07:30:20.517Z,183.37
2023-05-11T07:31:20.231Z,173.51
2023-05-11T07:32:20.226Z,177.12
2023-05-11T07:33:20.131Z,189.53
2023-05-11T07:34:20.158Z,192.46
2023-05-11T07:35:22.068Z,187.91
2023-05-11T07:36:20.766Z,184.11
2023-05-11T07:37:20.462Z,185.72
2023-05-11T07:38:20.396Z,205.91
2023-05-11T07:39:20.388Z,215.30
2023-05-11T07:40:20.705Z,223.19
2023-05-11T07:41:20.717Z,199.99
2023-05-11T07:42:20.572Z,170.03
2023-05-11T07:43:20.550Z,165.11
2023-05-11T07:44:20.604Z,169.29
2023-05-11T07:45:20.619Z,162.46
2023-05-11T07:46:20.742Z,165.04
2023-05-11T07:47:20.687Z,173.69
2023-05-11T07:48:20.750Z,183.96
2023-05-11T07:49:25.387Z,181.96
2023-05-11T07:50:24.147Z,182.01
2023-05-11T07:51:20.752Z,179.74
2023-05-11T07:52:20.664Z,171.67
2023-05-11T07:53:20.676Z,174.11
2023-05-11T07:54:21.722Z,178.07
2023-05-11T07:55:20.952Z,194.94
2023-05-11T07:56:20.672Z,203.36
2023-05-11T07:57:20.637Z,209.04
2023-05-11T07:58:20.651Z,199.97
2023-05-11T07:59:20.656Z,177.50
2023-05-11T08:00:20.845Z,187.14
2023-05-11T08:01:20.716Z,194.37
2023-05-11T08:02:20.678Z,200.99
2023-05-11T08:03:20.671Z,199.25
2023-05-11T08:04:20.649Z,203.07
2023-05-11T08:05:20.834Z,212.05
2023-05-11T08:06:20.652Z,213.79
2023-05-11T08:07:20.620Z,209.19
2023-05-11T08:08:21.602Z,203.69
2023-05-11T08:09:20.583Z,192.79
2023-05-11T08:10:20.790Z,200.16
2023-05-11T08:11:20.721Z,205.90
2023-05-11T08:12:20.815Z,203.03
2023-05-11T08:13:20.602Z,198.41
2023-05-11T08:14:20.639Z,181.13
2023-05-11T08:15:20.658Z,173.47
2023-05-11T08:16:20.774Z,173.52
2023-05-11T08:17:20.540Z,176.15
2023-05-11T08:18:20.572Z,155.80
2023-05-11T08:19:20.511Z,131.51
2023-05-11T08:20:20.555Z,127.49
2023-05-11T08:21:20.731Z,141.61
2023-05-11T08:22:20.570Z,148.70
2023-05-11T08:23:20.566Z,148.10
2023-05-11T08:24:20.665Z,150.18
2023-05-11T08:25:20.767Z,157.63
2023-05-11T08:26:20.758Z,159.71
2023-05-11T08:27:20.813Z,173.93
2023-05-11T08:28:20.831Z,159.90
2023-05-11T08:29:20.862Z,150.21
2023-05-11T08:30:20.931Z,152.95
2023-05-11T08:31:20.981Z,160.07
2023-05-11T08:32:21.016Z,152.53
2023-05-11T08:33:36.478Z,142.46
2023-05-11T08:34:22.090Z,142.71
2023-05-11T08:35:21.324Z,143.73
2023-05-11T08:36:21.014Z,147.10
2023-05-11T08:37:21.009Z,154.45
2023-05-11T08:38:21.009Z,159.11
2023-05-11T08:39:33.195Z,142.88
2023-05-11T08:40:22.037Z,127.18
2023-05-11T08:41:21.017Z,123.18
2023-05-11T08:42:21.014Z,132.25
2023-05-11T08:43:20.960Z,146.94
2023-05-11T08:44:20.968Z,165.88
2023-05-11T08:45:21.079Z,163.44
2023-05-11T08:46:21.262Z,156.06
2023-05-11T08:47:23.434Z,155.20
2023-05-11T08:48:20.908Z,152.53
2023-05-11T08:49:20.954Z,143.94
2023-05-11T08:50:20.925Z,142.08
2023-05-11T08:51:20.915Z,137.07
2023-05-11T08:52:20.927Z,138.04
2023-05-11T08:53:20.892Z,137.57
2023-05-11T08:54:20.886Z,135.41
2023-05-11T08:55:20.954Z,138.29
2023-05-11T08:56:20.898Z,144.98
2023-05-11T08:57:20.911Z,141.70
2023-05-11T08:58:20.849Z,140.25
2023-05-11T08:59:20.853Z,136.02
2023-05-11T09:00:20.878Z,129.92
2023-05-11T09:01:21.326Z,129.18
2023-05-11T09:02:20.864Z,136.88
2023-05-11T09:03:21.038Z,163.92
2023-05-11T09:04:20.841Z,165.74
2023-05-11T09:05:21.067Z,155.06
2023-05-11T09:06:21.236Z,148.27
2023-05-11T09:07:20.815Z,160.10
2023-05-11T09:08:20.823Z,183.12
2023-05-11T09:09:20.795Z,172.23
2023-05-11T09:10:20.808Z,164.41
2023-05-11T09:11:20.801Z,164.80
2023-05-11T09:12:20.754Z,167.54
2023-05-11T09:13:20.753Z,175.15
2023-05-11T09:15:21.797Z,161.46
2023-05-11T09:16:36.306Z,162.08
2023-05-11T09:17:21.796Z,161.24
2023-05-11T09:18:20.801Z,158.77
2023-05-11T09:19:20.739Z,160.51
2023-05-11T09:20:20.897Z,168.28
2023-05-11T09:21:21.267Z,186.77
2023-05-11T09:22:20.798Z,192.46
2023-05-11T09:23:20.850Z,185.46
2023-05-11T09:24:20.950Z,195.37
2023-05-11T09:25:20.993Z,196.25
2023-05-11T09:26:20.835Z,176.53
2023-05-11T09:27:21.665Z,169.42
2023-05-11T09:28:25.411Z,162.85
2023-05-11T09:29:20.864Z,163.27
2023-05-11T09:30:22.518Z,165.90
2023-05-11T09:31:20.981Z,173.34
2023-05-11T09:32:21.297Z,181.41
2023-05-11T09:33:20.970Z,193.83
2023-05-11T09:34:21.015Z,199.23
2023-05-11T09:35:21.220Z,209.39
2023-05-11T09:36:21.000Z,211.10
2023-05-11T09:37:21.002Z,221.06
2023-05-11T09:38:21.026Z,226.64
2023-05-11T09:40:27.510Z,251.84
2023-05-11T09:41:22.078Z,252.11
2023-05-11T09:42:21.252Z,252.40
2023-05-11T09:43:21.045Z,255.89
2023-05-11T09:44:21.120Z,265.57
2023-05-11T09:45:21.127Z,269.46
2023-05-11T09:46:21.014Z,254.88
2023-05-11T09:47:21.262Z,252.62
2023-05-11T09:48:21.178Z,249.72
2023-05-11T09:49:20.991Z,231.08
2023-05-11T09:50:26.482Z,215.39
2023-05-11T09:51:21.982Z,213.88
2023-05-11T09:52:21.437Z,215.87
2023-05-11T09:53:20.987Z,216.10
2023-05-11T09:54:20.990Z,210.11
2023-05-11T09:55:21.051Z,194.12
2023-05-11T09:56:20.947Z,183.23
2023-05-11T09:57:21.261Z,179.30
2023-05-11T09:58:20.939Z,193.18
2023-05-11T09:59:20.930Z,212.12
2023-05-11T10:00:20.927Z,227.87
2023-05-11T10:01:20.958Z,245.46
2023-05-11T10:02:21.440Z,250.00
2023-05-11T10:03:21.024Z,248.46
2023-05-11T10:04:23.725Z,247.69
2023-05-11T10:05:20.969Z,231.64
2023-05-11T10:06:20.902Z,212.22
2023-05-11T10:07:21.285Z,207.63
2023-05-11T10:08:20.868Z,200.38
2023-05-11T10:09:20.851Z,197.88
2023-05-11T10:10:20.936Z,190.45
2023-05-11T10:11:20.846Z,185.15
2023-05-11T10:12:21.278Z,178.60
2023-05-11T10:13:20.851Z,178.94
2023-05-11T10:14:20.809Z,183.37
2023-05-11T10:15:20.991Z,174.98
2023-05-11T10:16:20.828Z,177.82
2023-05-11T10:17:21.271Z,166.25
2023-05-11T10:18:20.806Z,156.52
2023-05-11T10:19:20.790Z,135.21
2023-05-11T10:20:21.077Z,127.19
2023-05-11T10:21:20.785Z,125.68
2023-05-11T10:22:21.273Z,129.64
2023-05-11T10:23:20.779Z,133.42
2023-05-11T10:24:20.806Z,144.73
2023-05-11T10:25:20.750Z,160.58
2023-05-11T10:26:20.751Z,163.73
2023-05-11T10:27:20.746Z,152.48
2023-05-11T10:28:20.752Z,151.26
2023-05-11T10:29:29.791Z,161.50
2023-05-11T10:30:20.934Z,161.98
2023-05-11T10:31:20.737Z,166.46
2023-05-11T10:32:20.795Z,173.74
2023-05-11T10:33:20.713Z,189.16
2023-05-11T10:34:20.705Z,212.17
2023-05-11T10:35:20.697Z,206.10
2023-05-11T10:36:20.666Z,205.37
2023-05-11T10:37:20.769Z,205.99
2023-05-11T10:38:20.666Z,203.86
2023-05-11T10:39:20.648Z,215.30
2023-05-11T10:40:20.762Z,223.04
2023-05-11T10:41:20.616Z,222.16
2023-05-11T10:42:20.816Z,218.83
2023-05-11T10:43:20.603Z,219.21
2023-05-11T10:44:20.607Z,230.08
2023-05-11T10:45:20.619Z,242.88
2023-05-11T10:46:20.670Z,241.36
2023-05-11T10:47:20.832Z,242.71
2023-05-11T10:48:20.573Z,240.22
2023-05-11T10:49:20.589Z,240.87
2023-05-11T10:50:20.822Z,239.56
2023-05-11T10:51:20.563Z,242.69
2023-05-11T10:52:20.560Z,246.77
2023-05-11T10:53:20.544Z,250.00
2023-05-11T10:54:20.561Z,251.30
2023-05-11T10:55:20.664Z,251.68
2023-05-11T10:56:20.525Z,243.64
2023-05-11T10:57:20.765Z,215.53
2023-05-11T10:58:20.515Z,210.29
2023-05-11T10:59:20.515Z,212.06
2023-05-11T11:00:20.761Z,217.30
2023-05-11T11:01:20.575Z,221.64
2023-05-11T11:02:20.471Z,220.18
2023-05-11T11:03:20.473Z,201.46
2023-05-11T11:04:20.506Z,190.15
2023-05-11T11:05:20.766Z,181.08
2023-05-11T11:06:20.483Z,179.81
2023-05-11T11:07:20.818Z,184.46
2023-05-11T11:08:21.446Z,165.37
2023-05-11T11:09:20.428Z,136.43
2023-05-11T11:10:20.709Z,142.99
2023-05-11T11:11:20.500Z,147.62
2023-05-11T11:12:20.774Z,161.33
2023-05-11T11:13:20.596Z,159.90
2023-05-11T11:14:20.652Z,162.09
2023-05-11T11:15:20.799Z,139.64
2023-05-11T11:16:20.823Z,120.46
2023-05-11T11:17:21.337Z,124.67
2023-05-11T11:18:20.963Z,129.24
2023-05-11T11:19:20.964Z,96.55
2023-05-11T11:20:21.016Z,98.37
2023-05-11T11:21:21.079Z,93.41
2023-05-11T11:22:21.192Z,85.62
2023-05-11T11:23:21.209Z,76.23
2023-05-11T11:24:21.248Z,70.20
2023-05-11T11:25:21.298Z,71.63
2023-05-11T11:26:21.365Z,82.43
2023-05-11T11:27:21.794Z,94.90
2023-05-11T11:28:21.590Z,110.55
2023-05-11T11:29:21.692Z,95.94
2023-05-11T11:30:21.796Z,85.49
2023-05-11T11:31:21.916Z,73.16
2023-05-11T11:32:21.913Z,77.89
2023-05-11T11:33:22.007Z,83.17
2023-05-11T11:34:22.010Z,88.47
2023-05-11T11:35:22.093Z,96.08
2023-05-11T11:36:22.122Z,92.85
2023-05-11T11:37:22.321Z,89.12
2023-05-11T11:38:22.324Z,74.75
2023-05-11T11:39:22.276Z,77.32
2023-05-11T11:40:22.346Z,88.26
2023-05-11T11:41:22.392Z,84.35
2023-05-11T11:42:22.819Z,93.10
2023-05-11T11:43:22.463Z,111.89
2023-05-11T11:44:22.702Z,130.83
2023-05-11T11:45:22.588Z,111.28
2023-05-11T11:46:22.602Z,97.33
2023-05-11T11:47:22.766Z,86.66
2023-05-11T11:48:22.621Z,77.00
2023-05-11T11:49:22.633Z,72.98
2023-05-11T11:50:22.671Z,86.47
2023-05-11T11:51:22.704Z,100.30
2023-05-11T11:52:22.790Z,99.16
2023-05-11T11:53:22.705Z,107.87
2023-05-11T11:54:22.770Z,122.88
2023-05-11T11:55:22.790Z,113.27
2023-05-11T11:56:22.777Z,119.25
2023-05-11T11:57:22.857Z,117.96
2023-05-11T11:58:22.829Z,114.25
2023-05-11T11:59:22.885Z,112.73
2023-05-11T12:00:22.865Z,97.94
2023-05-11T12:01:22.873Z,68.93
2023-05-11T12:02:23.027Z,67.39
2023-05-11T12:03:23.124Z,75.06
2023-05-11T12:04:23.114Z,75.09
2023-05-11T12:05:23.628Z,95.09
2023-05-11T12:06:25.033Z,107.56
2023-05-11T12:07:22.956Z,105.35
2023-05-11T12:08:22.966Z,104.03
2023-05-11T12:09:23.067Z,114.54
2023-05-11T12:10:22.904Z,119.57
2023-05-11T12:11:22.950Z,131.13
2023-05-11T12:12:22.968Z,130.78
2023-05-11T12:13:22.936Z,138.54
2023-05-11T12:14:22.921Z,129.03
2023-05-11T12:15:22.907Z,109.54
2023-05-11T12:16:22.963Z,112.22
2023-05-11T12:17:22.956Z,119.81
2023-05-11T12:18:22.959Z,108.53
2023-05-11T12:19:22.876Z,82.02
2023-05-11T12:20:22.882Z,83.36
2023-05-11T12:21:22.956Z,105.15
2023-05-11T12:22:22.850Z,105.56
2023-05-11T12:23:22.832Z,91.17
2023-05-11T12:24:22.866Z,90.29
2023-05-11T12:25:23.075Z,91.11
2023-05-11T12:26:22.846Z,91.34
2023-05-11T12:27:22.820Z,97.84
2023-05-11T12:28:22.820Z,110.08
2023-05-11T12:29:22.826Z,97.60
2023-05-11T12:30:22.802Z,87.54
2023-05-11T12:31:22.839Z,81.05
2023-05-11T12:32:22.776Z,65.94
2023-05-11T12:33:22.866Z,67.57
2023-05-11T12:34:22.783Z,81.85
2023-05-11T12:35:22.755Z,74.95
2023-05-11T12:36:22.779Z,81.44
2023-05-11T12:37:22.773Z,82.63
2023-05-11T12:38:22.764Z,93.12
2023-05-11T12:39:22.775Z,80.82